createdAt,value
2023-03-25T00:01:38.478Z,97324.00
2023-03-25T00:04:11.484Z,97312.34
2023-03-25T00:06:45.881Z,97313.06
2023-03-25T00:09:18.942Z,97304.53
2023-03-25T00:11:52.140Z,97307.72
2023-03-25T00:14:26.103Z,97310.75
2023-03-25T00:17:01.223Z,97311.84
2023-03-25T00:19:35.532Z,97323.75
2023-03-25T00:22:09.905Z,97329.81
2023-03-25T00:24:42.892Z,97326.22
2023-03-25T00:27:17.656Z,97333.16
2023-03-25T00:29:50.651Z,97340.31
2023-03-25T00:32:24.303Z,97342.16
2023-03-25T00:34:57.500Z,97345.81
2023-03-25T00:37:31.828Z,97347.41
2023-03-25T00:40:06.407Z,97343.75
2023-03-25T00:42:44.534Z,97329.53
2023-03-25T00:45:17.858Z,97324.88
2023-03-25T00:47:51.007Z,97320.38
2023-03-25T00:50:26.160Z,97318.84
2023-03-25T00:53:01.292Z,97324.16
2023-03-25T00:55:34.286Z,97328.09
2023-03-25T00:58:07.276Z,97315.25
2023-03-25T01:00:40.307Z,97316.16
2023-03-25T01:03:13.583Z,97314.56
2023-03-25T01:05:46.645Z,97315.25
2023-03-25T01:08:25.171Z,97316.75
2023-03-25T01:10:58.269Z,97313.25
2023-03-25T01:13:31.360Z,97308.22
2023-03-25T01:16:08.847Z,97313.31
2023-03-25T01:18:41.986Z,97310.69
2023-03-25T01:21:15.017Z,97296.19
2023-03-25T01:23:49.483Z,97288.38
2023-03-25T01:26:22.535Z,97291.25
2023-03-25T01:28:55.626Z,97295.25
2023-03-25T01:31:30.306Z,97286.63
2023-03-25T01:34:03.986Z,97298.94
2023-03-25T01:36:39.751Z,97290.69
2023-03-25T01:39:18.440Z,97290.06
2023-03-25T01:41:52.226Z,97286.31
2023-03-25T01:45:21.031Z,97284.69
2023-03-25T01:48:02.867Z,97278.19
2023-03-25T01:50:38.165Z,97279.59
2023-03-25T01:53:12.046Z,97276.81
2023-03-25T01:55:47.714Z,97268.03
2023-03-25T01:58:22.028Z,97268.47
2023-03-25T02:00:55.993Z,97282.81
2023-03-25T02:03:30.896Z,97278.28
2023-03-25T02:06:09.110Z,97267.16
2023-03-25T02:08:42.860Z,97267.69
2023-03-25T02:11:17.805Z,97269.47
2023-03-25T02:13:50.851Z,97267.34
2023-03-25T02:16:31.887Z,97263.34
2023-03-25T02:19:46.928Z,97256.28
2023-03-25T02:22:51.852Z,97258.13
2023-03-25T02:25:51.683Z,97254.34
2023-03-25T02:28:36.482Z,97251.53
2023-03-25T02:31:44.622Z,97246.63
2023-03-25T02:34:39.231Z,97249.88
2023-03-25T02:38:17.222Z,97258.03
2023-03-25T02:40:57.441Z,97260.91
2023-03-25T02:43:36.438Z,97259.75
2023-03-25T02:46:14.534Z,97265.38
2023-03-25T02:48:55.018Z,97265.19
2023-03-25T02:51:31.802Z,97265.19
2023-03-25T02:54:12.567Z,97265.19
2023-03-25T02:56:48.295Z,97267.03
2023-03-25T02:59:22.459Z,97254.81
2023-03-25T03:01:59.347Z,97264.38
2023-03-25T03:04:32.429Z,97270.44
2023-03-25T03:07:05.471Z,97262.97
2023-03-25T03:09:46.796Z,97262.25
2023-03-25T03:12:41.064Z,97263.41
2023-03-25T03:15:28.974Z,97260.16
2023-03-25T03:18:16.074Z,97261.91
2023-03-25T03:21:00.576Z,97251.47
2023-03-25T03:23:39.448Z,97262.03
2023-03-25T03:26:22.788Z,97258.84
2023-03-25T03:29:05.750Z,97273.69
2023-03-25T03:31:56.244Z,97301.56
2023-03-25T03:34:44.788Z,97311.94
2023-03-25T03:37:23.122Z,97302.69
2023-03-25T03:39:58.650Z,97310.38
2023-03-25T03:42:37.526Z,97313.44
2023-03-25T03:45:18.805Z,97325.63
2023-03-25T03:47:56.222Z,97325.28
2023-03-25T03:50:32.983Z,97322.97
2023-03-25T03:53:12.308Z,97307.47
2023-03-25T03:55:52.099Z,97301.41
2023-03-25T03:58:32.046Z,97310.53
2023-03-25T04:01:10.722Z,97318.00
2023-03-25T04:03:48.635Z,97326.16
2023-03-25T04:06:25.811Z,97336.84
2023-03-25T04:09:05.582Z,97340.56
2023-03-25T04:11:44.700Z,97336.50
2023-03-25T04:14:19.274Z,97338.34
2023-03-25T04:16:53.143Z,97333.34
2023-03-25T04:19:27.021Z,97340.09
2023-03-25T04:22:00.065Z,97341.50
2023-03-25T04:24:33.599Z,97346.00
2023-03-25T04:27:06.601Z,97345.28
2023-03-25T04:29:41.398Z,97344.56
2023-03-25T04:32:15.326Z,97333.16
2023-03-25T04:34:48.379Z,97338.59
2023-03-25T04:37:22.368Z,97336.91
2023-03-25T04:40:00.482Z,97344.91
2023-03-25T04:42:37.319Z,97347.94
2023-03-25T04:45:14.386Z,97351.44
2023-03-25T04:47:54.051Z,97351.16
2023-03-25T04:50:30.448Z,97357.22
2023-03-25T04:53:03.900Z,97351.94
2023-03-25T04:55:37.031Z,97342.38
2023-03-25T04:58:11.214Z,97340.09
2023-03-25T05:00:50.059Z,97347.75
2023-03-25T05:03:24.258Z,97342.59
2023-03-25T05:05:57.473Z,97354.50
2023-03-25T05:08:31.134Z,97354.50
2023-03-25T05:11:04.570Z,97357.13
2023-03-25T05:13:37.563Z,97350.22
2023-03-25T05:16:12.119Z,97357.72
2023-03-25T05:18:45.288Z,97367.63
2023-03-25T05:21:18.443Z,97371.81
2023-03-25T05:23:52.590Z,97376.47
2023-03-25T05:26:25.876Z,97376.66
2023-03-25T05:29:01.591Z,97377.59
2023-03-25T05:31:36.198Z,97386.22
2023-03-25T05:34:09.531Z,97388.28
2023-03-25T05:36:43.582Z,97386.22
2023-03-25T05:39:17.170Z,97397.56
2023-03-25T05:41:50.460Z,97396.88
2023-03-25T05:44:23.527Z,97401.66
2023-03-25T05:47:01.161Z,97389.19
2023-03-25T05:49:34.303Z,97401.28
2023-03-25T05:52:09.102Z,97391.84
2023-03-25T05:54:42.615Z,97394.00
2023-03-25T05:57:15.752Z,97398.75
2023-03-25T05:59:48.933Z,97399.41
2023-03-25T06:02:23.638Z,97405.06
2023-03-25T06:04:56.735Z,97401.16
2023-03-25T06:07:29.886Z,97404.25
2023-03-25T06:10:04.075Z,97404.41
2023-03-25T06:12:38.776Z,97404.94
2023-03-25T06:15:14.288Z,97394.03
2023-03-25T06:17:48.736Z,97397.75
2023-03-25T06:20:21.884Z,97390.72
2023-03-25T06:22:54.994Z,97397.81
2023-03-25T06:25:28.516Z,97391.34
2023-03-25T06:28:03.567Z,97400.91
2023-03-25T06:30:36.850Z,97395.53
2023-03-25T06:33:13.924Z,97401.91
2023-03-25T06:36:08.847Z,97400.81
2023-03-25T06:38:42.227Z,97406.63
2023-03-25T06:41:17.677Z,97401.84
2023-03-25T06:43:51.003Z,97398.47
2023-03-25T06:46:24.143Z,97398.81
2023-03-25T06:48:58.609Z,97400.59
2023-03-25T06:51:32.060Z,97406.09
2023-03-25T06:54:05.686Z,97405.81
2023-03-25T06:56:38.909Z,97406.53
2023-03-25T06:59:12.032Z,97416.19
2023-03-25T07:01:45.150Z,97414.00
2023-03-25T07:04:19.693Z,97407.06
2023-03-25T07:06:53.818Z,97408.38
2023-03-25T07:09:27.436Z,97413.13
2023-03-25T07:12:00.693Z,97421.34
2023-03-25T07:14:33.763Z,97414.19
2023-03-25T07:17:06.813Z,97412.66
2023-03-25T07:19:41.248Z,97400.72
2023-03-25T07:22:14.329Z,97404.88
2023-03-25T07:24:47.359Z,97409.38
2023-03-25T07:27:20.474Z,97413.38
2023-03-25T07:29:53.566Z,97406.13
2023-03-25T07:32:26.815Z,97397.03
2023-03-25T07:35:01.181Z,97403.44
2023-03-25T07:37:34.284Z,97395.75
2023-03-25T07:40:09.359Z,97396.63
2023-03-25T07:42:42.491Z,97389.03
2023-03-25T07:45:15.844Z,97399.09
2023-03-25T07:47:50.516Z,97414.28
2023-03-25T07:50:25.873Z,97407.06
2023-03-25T07:52:59.169Z,97409.88
2023-03-25T07:55:32.213Z,97421.13
2023-03-25T07:58:05.558Z,97413.94
2023-03-25T08:00:39.057Z,97416.25
2023-03-25T08:03:13.112Z,97413.78
2023-03-25T08:05:49.940Z,97414.09
2023-03-25T08:08:23.564Z,97402.44
2023-03-25T08:10:56.708Z,97403.72
2023-03-25T08:13:30.253Z,97407.44
2023-03-25T08:16:03.323Z,97398.00
2023-03-25T08:18:37.026Z,97396.72
2023-03-25T08:21:11.684Z,97385.22
2023-03-25T08:23:44.977Z,97380.06
2023-03-25T08:26:18.027Z,97379.31
2023-03-25T08:28:51.085Z,97380.41
2023-03-25T08:31:24.440Z,97374.81
2023-03-25T08:33:57.541Z,97379.38
2023-03-25T08:36:32.067Z,97378.81
2023-03-25T08:39:09.545Z,97378.38
2023-03-25T08:41:42.636Z,97374.94
2023-03-25T08:44:15.741Z,97374.19
2023-03-25T08:46:48.787Z,97375.19
2023-03-25T08:49:21.834Z,97372.41
2023-03-25T08:51:57.953Z,97373.03
2023-03-25T08:54:31.253Z,97364.41
2023-03-25T08:57:04.678Z,97354.81
2023-03-25T08:59:37.709Z,97358.94
2023-03-25T09:02:12.455Z,97359.09
2023-03-25T09:04:46.029Z,97358.19
2023-03-25T09:07:20.541Z,97357.31
2023-03-25T09:09:53.768Z,97364.38
2023-03-25T09:12:26.875Z,97364.78
2023-03-25T09:14:59.950Z,97378.22
2023-03-25T09:17:33.038Z,97373.97
2023-03-25T09:20:08.602Z,97391.25
2023-03-25T09:22:45.632Z,97382.94
2023-03-25T09:25:19.055Z,97376.88
2023-03-25T09:27:52.104Z,97380.81
2023-03-25T09:30:25.309Z,97388.16
2023-03-25T09:32:58.459Z,97381.88
2023-03-25T09:35:31.528Z,97387.38
2023-03-25T09:38:06.083Z,97379.47
2023-03-25T09:40:42.112Z,97385.88
2023-03-25T09:43:37.263Z,97386.41
2023-03-25T09:46:10.470Z,97371.81
2023-03-25T09:48:45.575Z,97355.88
2023-03-25T09:51:25.240Z,97362.31
2023-03-25T09:54:05.653Z,97367.31
2023-03-25T09:56:42.036Z,97356.91
2023-03-25T09:59:20.543Z,97352.09
2023-03-25T10:02:03.425Z,97361.59
2023-03-25T10:04:55.486Z,97351.34
2023-03-25T10:07:54.929Z,97357.03
2023-03-25T10:10:37.993Z,97365.13
2023-03-25T10:13:20.098Z,97362.53
2023-03-25T10:16:01.120Z,97358.97
2023-03-25T10:18:57.044Z,97360.09
2023-03-25T10:21:39.117Z,97351.38
2023-03-25T10:24:19.944Z,97345.47
2023-03-25T10:26:59.765Z,97341.47
2023-03-25T10:29:40.246Z,97347.91
2023-03-25T10:32:19.224Z,97336.88
2023-03-25T10:34:56.017Z,97331.53
2023-03-25T10:37:35.384Z,97318.72
2023-03-25T10:40:21.884Z,97323.31
2023-03-25T10:43:11.872Z,97328.50
2023-03-25T10:45:46.083Z,97310.84
2023-03-25T10:48:25.343Z,97315.03
2023-03-25T10:51:05.840Z,97310.88
2023-03-25T10:53:39.726Z,97317.66
2023-03-25T10:56:16.920Z,97312.31
2023-03-25T10:58:55.596Z,97310.91
2023-03-25T11:01:36.270Z,97300.88
2023-03-25T11:04:13.938Z,97290.84
2023-03-25T11:06:54.056Z,97305.28
2023-03-25T11:09:30.352Z,97270.09
2023-03-25T11:12:07.445Z,97295.63
2023-03-25T11:14:42.482Z,97293.38
2023-03-25T11:17:21.705Z,97298.28
2023-03-25T11:19:59.511Z,97292.53
2023-03-25T11:22:37.594Z,97292.53
2023-03-25T11:25:20.268Z,97296.13
2023-03-25T11:27:57.398Z,97296.88
2023-03-25T11:30:31.889Z,97296.66
2023-03-25T11:33:09.993Z,97294.63
2023-03-25T11:35:49.252Z,97282.31
2023-03-25T11:38:24.983Z,97311.53
2023-03-25T11:41:07.241Z,97313.88
2023-03-25T11:43:41.588Z,97319.47
2023-03-25T11:46:17.645Z,97310.06
2023-03-25T11:48:51.284Z,97309.34
2023-03-25T11:51:28.990Z,97299.56
2023-03-25T11:54:07.677Z,97298.94
2023-03-25T11:56:45.439Z,97299.34
2023-03-25T11:59:25.141Z,97296.41
2023-03-25T12:02:05.356Z,97283.81
2023-03-25T12:04:38.474Z,97280.81
2023-03-25T12:07:16.383Z,97281.03
2023-03-25T12:09:56.805Z,97282.81
2023-03-25T12:12:43.939Z,97278.84
2023-03-25T12:15:28.573Z,97289.13
2023-03-25T12:18:20.062Z,97293.84
2023-03-25T12:21:06.191Z,97290.25
2023-03-25T12:23:48.455Z,97284.06
2023-03-25T12:26:30.447Z,97282.72
2023-03-25T12:29:17.339Z,97295.50
2023-03-25T12:32:13.650Z,97294.75
2023-03-25T12:35:01.045Z,97282.53
2023-03-25T12:37:46.433Z,97287.78
2023-03-25T12:40:38.752Z,97289.91
2023-03-25T12:43:16.446Z,97306.53
2023-03-25T12:46:10.344Z,97308.50
2023-03-25T12:49:02.887Z,97302.56
2023-03-25T12:51:48.102Z,97298.63
2023-03-25T12:54:38.215Z,97279.03
2023-03-25T12:57:25.480Z,97290.66
2023-03-25T13:00:26.582Z,97276.78
2023-03-25T13:03:42.392Z,97284.50
2023-03-25T13:06:30.220Z,97268.44
2023-03-25T13:09:08.379Z,97298.16
2023-03-25T13:11:45.406Z,97289.75
2023-03-25T13:14:24.271Z,97301.59
2023-03-25T13:17:01.503Z,97311.16
2023-03-25T13:19:41.139Z,97323.16
2023-03-25T13:22:20.755Z,97328.00
2023-03-25T13:24:57.990Z,97334.47
2023-03-25T13:27:34.686Z,97325.97
2023-03-25T13:30:18.248Z,97331.09
2023-03-25T13:32:54.853Z,97321.25
2023-03-25T13:35:39.423Z,97314.59
2023-03-25T13:38:18.761Z,97322.16
2023-03-25T13:41:06.299Z,97312.72
2023-03-25T13:43:49.302Z,97321.03
2023-03-25T13:46:28.605Z,97329.09
2023-03-25T13:49:07.739Z,97323.47
2023-03-25T13:51:42.141Z,97324.22
2023-03-25T13:54:23.085Z,97321.78
2023-03-25T13:57:41.314Z,97317.31
2023-03-25T14:00:48.332Z,97300.56
2023-03-25T14:04:10.641Z,97305.06
2023-03-25T14:07:30.943Z,97319.63
2023-03-25T14:10:41.318Z,97311.91
2023-03-25T14:13:19.059Z,97312.63
2023-03-25T14:16:00.439Z,97302.50
2023-03-25T14:18:34.378Z,97305.25
2023-03-25T14:21:26.024Z,97297.91
2023-03-25T14:24:07.124Z,97307.09
2023-03-25T14:26:47.231Z,97305.66
2023-03-25T14:29:33.530Z,97295.03
2023-03-25T14:32:32.360Z,97310.00
2023-03-25T14:35:50.007Z,97311.25
2023-03-25T14:38:59.764Z,97320.22
2023-03-25T14:41:58.561Z,97327.34
2023-03-25T14:44:33.677Z,97328.44
2023-03-25T14:47:30.238Z,97350.19
2023-03-25T14:50:30.858Z,97380.72
2023-03-25T14:53:06.929Z,97368.06
2023-03-25T14:55:48.028Z,97365.22
2023-03-25T14:58:25.270Z,97350.03
2023-03-25T15:01:04.882Z,97341.72
2023-03-25T15:03:42.728Z,97337.41
2023-03-25T15:06:19.568Z,97331.94
2023-03-25T15:08:56.601Z,97331.94
2023-03-25T15:11:35.441Z,97322.41
2023-03-25T15:14:15.076Z,97324.97
2023-03-25T15:17:03.092Z,97313.50
2023-03-25T15:20:28.759Z,97307.22
2023-03-25T15:23:36.353Z,97324.06
2023-03-25T15:26:15.944Z,97315.88
2023-03-25T15:29:32.486Z,97324.34
2023-03-25T15:32:24.349Z,97310.47
2023-03-25T15:35:36.125Z,97317.09
2023-03-25T15:39:00.390Z,97305.50
2023-03-25T15:41:57.300Z,97310.69
2023-03-25T15:45:07.963Z,97316.13
2023-03-25T15:48:03.970Z,97310.25
2023-03-25T15:50:52.925Z,97313.69
2023-03-25T15:53:46.636Z,97312.91
2023-03-25T15:56:24.206Z,97308.53
2023-03-25T15:59:05.738Z,97308.03
2023-03-25T16:01:45.282Z,97307.28
2023-03-25T16:04:24.698Z,97303.94
2023-03-25T16:06:59.216Z,97299.28
2023-03-25T16:09:33.595Z,97298.16
2023-03-25T16:12:11.245Z,97305.25
2023-03-25T16:14:45.511Z,97299.88
2023-03-25T16:17:22.771Z,97304.06
2023-03-25T16:19:57.580Z,97311.56
2023-03-25T16:22:33.781Z,97313.38
2023-03-25T16:25:15.056Z,97313.59
2023-03-25T16:27:53.769Z,97315.41
2023-03-25T16:30:30.645Z,97317.03
2023-03-25T16:33:17.638Z,97325.91
2023-03-25T16:35:58.062Z,97324.03
2023-03-25T16:38:32.674Z,97318.09
2023-03-25T16:41:13.088Z,97330.47
2023-03-25T16:43:46.298Z,97332.56
2023-03-25T16:46:23.510Z,97331.44
2023-03-25T16:49:08.369Z,97327.09
2023-03-25T16:51:42.016Z,97334.75
2023-03-25T16:54:29.359Z,97344.03
2023-03-25T16:57:02.894Z,97342.97
2023-03-25T16:59:38.422Z,97344.09
2023-03-25T17:02:27.267Z,97333.94
2023-03-25T17:05:15.984Z,97331.63
2023-03-25T17:07:52.419Z,97339.84
2023-03-25T17:10:28.790Z,97339.28
2023-03-25T17:13:10.084Z,97335.31
2023-03-25T17:15:43.598Z,97340.25
2023-03-25T17:18:18.975Z,97338.47
2023-03-25T17:21:00.158Z,97343.53
2023-03-25T17:23:37.239Z,97345.97
2023-03-25T17:26:12.496Z,97356.13
2023-03-25T17:29:00.019Z,97362.00
2023-03-25T17:31:36.386Z,97358.63
2023-03-25T17:34:13.845Z,97365.25
2023-03-25T17:36:50.584Z,97371.28
2023-03-25T17:39:26.138Z,97361.59
2023-03-25T17:42:01.874Z,97368.31
2023-03-25T17:44:37.876Z,97375.91
2023-03-25T17:47:16.305Z,97366.03
2023-03-25T17:49:49.455Z,97373.69
2023-03-25T17:52:23.910Z,97377.50
2023-03-25T17:54:56.950Z,97375.19
2023-03-25T17:57:29.998Z,97386.44
2023-03-25T18:00:05.165Z,97387.75
2023-03-25T18:02:38.323Z,97381.78
2023-03-25T18:05:12.509Z,97377.16
2023-03-25T18:07:47.083Z,97386.34
2023-03-25T18:10:23.442Z,97375.41
2023-03-25T18:12:56.505Z,97378.25
2023-03-25T18:15:30.108Z,97386.06
2023-03-25T18:18:03.490Z,97388.75
2023-03-25T18:20:38.482Z,97387.66
2023-03-25T18:23:12.898Z,97398.56
2023-03-25T18:25:46.442Z,97405.50
2023-03-25T18:28:19.492Z,97400.69
2023-03-25T18:30:55.227Z,97412.34
2023-03-25T18:33:32.691Z,97414.03
2023-03-25T18:36:07.110Z,97408.94
2023-03-25T18:38:42.087Z,97412.72
2023-03-25T18:41:17.197Z,97415.84
2023-03-25T18:43:50.420Z,97416.53
2023-03-25T18:46:23.524Z,97424.56
2023-03-25T18:49:02.232Z,97425.44
2023-03-25T18:51:37.371Z,97430.13
2023-03-25T18:54:12.190Z,97429.25
2023-03-25T18:56:45.513Z,97437.28
2023-03-25T18:59:20.643Z,97426.25
2023-03-25T19:01:53.747Z,97433.34
2023-03-25T19:04:27.247Z,97444.88
2023-03-25T19:07:01.152Z,97439.91
2023-03-25T19:09:35.556Z,97436.78
2023-03-25T19:12:08.712Z,97443.16
2023-03-25T19:14:41.780Z,97454.31
2023-03-25T19:17:14.895Z,97446.22
2023-03-25T19:19:49.524Z,97451.84
2023-03-25T19:22:24.714Z,97456.72
2023-03-25T19:24:59.509Z,97449.19
2023-03-25T19:27:32.548Z,97453.66
2023-03-25T19:30:07.658Z,97454.41
2023-03-25T19:32:42.639Z,97456.44
2023-03-25T19:35:17.766Z,97449.72
2023-03-25T19:37:51.937Z,97447.53
2023-03-25T19:40:29.089Z,97448.56
2023-03-25T19:43:05.238Z,97444.69
2023-03-25T19:45:38.325Z,97461.09
2023-03-25T19:48:11.498Z,97461.63
2023-03-25T19:50:44.550Z,97470.19
2023-03-25T19:53:17.651Z,97469.16
2023-03-25T19:55:52.615Z,97459.50
2023-03-25T19:58:25.844Z,97463.66
2023-03-25T20:00:58.956Z,97466.78
2023-03-25T20:03:32.846Z,97482.69
2023-03-25T20:06:07.229Z,97493.38
2023-03-25T20:08:40.321Z,97492.78
2023-03-25T20:11:15.322Z,97502.03
2023-03-25T20:13:49.255Z,97495.19
2023-03-25T20:16:22.487Z,97495.50
2023-03-25T20:18:55.800Z,97489.50
2023-03-25T20:21:28.995Z,97496.47
2023-03-25T20:24:02.060Z,97495.91
2023-03-25T20:26:36.915Z,97496.97
2023-03-25T20:29:09.926Z,97500.25
2023-03-25T20:31:43.037Z,97498.41
2023-03-25T20:34:16.286Z,97488.34
2023-03-25T20:36:49.941Z,97485.63
2023-03-25T20:39:24.732Z,97476.59
2023-03-25T20:41:59.123Z,97474.84
2023-03-25T20:44:33.435Z,97462.38
2023-03-25T20:47:07.631Z,97464.16
2023-03-25T20:49:40.710Z,97470.44
2023-03-25T20:52:13.983Z,97454.72
2023-03-25T20:54:49.330Z,97456.09
2023-03-25T20:57:24.129Z,97463.03
2023-03-25T20:59:58.123Z,97457.06
2023-03-25T21:02:31.487Z,97451.28
2023-03-25T21:05:05.618Z,97449.72
2023-03-25T21:07:40.058Z,97447.56
2023-03-25T21:10:13.209Z,97458.34
2023-03-25T21:12:47.867Z,97455.69
2023-03-25T21:15:21.740Z,97449.84
2023-03-25T21:17:54.910Z,97455.63
2023-03-25T21:20:28.841Z,97458.97
2023-03-25T21:23:02.820Z,97463.31
2023-03-25T21:25:36.034Z,97455.59
2023-03-25T21:28:10.450Z,97457.91
2023-03-25T21:30:43.815Z,97459.84
2023-03-25T21:33:16.816Z,97460.56
2023-03-25T21:35:53.696Z,97461.91
2023-03-25T21:38:28.846Z,97450.56
2023-03-25T21:41:05.352Z,97459.16
2023-03-25T21:43:42.213Z,97456.00
2023-03-25T21:46:15.654Z,97454.31
2023-03-25T21:48:50.468Z,97455.66
2023-03-25T21:51:26.381Z,97463.25
2023-03-25T21:54:00.555Z,97452.22
2023-03-25T21:56:34.836Z,97452.78
2023-03-25T21:59:10.301Z,97464.38
2023-03-25T22:01:43.348Z,97459.22
2023-03-25T22:04:17.863Z,97459.69
2023-03-25T22:06:50.934Z,97453.19
2023-03-25T22:09:24.122Z,97455.94
2023-03-25T22:11:57.138Z,97455.84
2023-03-25T22:14:31.560Z,97454.50
2023-03-25T22:17:04.621Z,97457.13
2023-03-25T22:19:37.746Z,97453.06
2023-03-25T22:22:11.117Z,97454.00
2023-03-25T22:24:44.901Z,97466.78
2023-03-25T22:27:18.094Z,97464.63
2023-03-25T22:29:52.490Z,97445.41
2023-03-25T22:32:27.275Z,97455.38
2023-03-25T22:35:00.532Z,97458.75
2023-03-25T22:37:36.826Z,97451.72
2023-03-25T22:40:11.798Z,97449.75
2023-03-25T22:42:44.849Z,97452.31
2023-03-25T22:45:20.008Z,97445.75
2023-03-25T22:47:53.076Z,97452.72
2023-03-25T22:50:26.088Z,97446.47
2023-03-25T22:52:59.123Z,97459.06
2023-03-25T22:55:33.325Z,97455.63
2023-03-25T22:58:06.426Z,97470.03
2023-03-25T23:00:40.864Z,97464.94
2023-03-25T23:03:13.996Z,97468.19
2023-03-25T23:05:57.602Z,97474.94
2023-03-25T23:08:35.143Z,97485.84
2023-03-25T23:11:11.353Z,97483.22
2023-03-25T23:13:46.748Z,97491.13
2023-03-25T23:16:25.304Z,97484.28
2023-03-25T23:18:59.327Z,97484.13
2023-03-25T23:21:33.658Z,97481.47
2023-03-25T23:24:07.685Z,97477.75
2023-03-25T23:26:42.144Z,97478.44
2023-03-25T23:29:15.495Z,97473.88
2023-03-25T23:31:49.951Z,97476.69
2023-03-25T23:34:23.183Z,97478.72
2023-03-25T23:36:56.347Z,97481.97
2023-03-25T23:39:29.440Z,97476.41
2023-03-25T23:42:02.485Z,97484.88
2023-03-25T23:44:35.656Z,97478.75
2023-03-25T23:47:09.978Z,97464.44
2023-03-25T23:49:44.216Z,97446.50
2023-03-25T23:52:17.346Z,97433.41
2023-03-25T23:54:50.469Z,97428.28
2023-03-25T23:57:23.460Z,97423.19
2023-03-25T23:59:56.686Z,97427.13
